Time;durP1;ratioP1;P1;durP2;ratioP2;P2;SDS_P1;SDS_P2;PMS_P1;PMS_P2;Temp;Humidity;BMP_temperature;BMP_pressure;BME280_temperature;BME280_humidity;BME280_pressure;Samples;Min_cycle;Max_cycle;Signal;HPM_P1;HPM_P2
2023/04/26 00:02:14;;;;;;;0.60;0.30;;;;;;;21.97;37.19;101835.69;5019157;27;97935;-75
2023/04/26 00:04:41;;;;;;;0.73;0.40;;;;;;;21.96;37.15;101836.72;5021479;27;97032;-75
2023/04/26 00:07:07;;;;;;;0.63;0.30;;;;;;;21.96;37.23;101837.59;5018451;27;96742;-74
2023/04/26 00:09:34;;;;;;;0.52;0.30;;;;;;;21.97;37.63;101839.28;5016993;27;97068;-75
2023/04/26 00:12:01;;;;;;;0.50;0.30;;;;;;;21.97;37.10;101831.09;5012773;27;96614;-75
2023/04/26 00:14:28;;;;;;;0.60;0.30;;;;;;;21.97;37.32;101833.81;5017012;27;96675;-75
2023/04/26 00:16:55;;;;;;;0.38;0.20;;;;;;;21.98;37.24;101838.28;5014718;27;96910;-75
2023/04/26 00:19:22;;;;;;;0.57;0.25;;;;;;;21.98;37.39;101837.41;5020419;27;97684;-77
2023/04/26 00:21:49;;;;;;;0.50;0.20;;;;;;;21.98;36.99;101838.28;5022737;27;96766;-75
2023/04/26 00:24:15;;;;;;;0.50;0.20;;;;;;;21.99;37.16;101841.88;5018452;27;97237;-75
2023/04/26 00:26:42;;;;;;;0.40;0.20;;;;;;;21.98;37.09;101838.28;5028056;27;97196;-75
2023/04/26 00:29:09;;;;;;;0.38;0.30;;;;;;;21.98;37.28;101830.06;5026651;27;99178;-75
2023/04/26 00:31:35;;;;;;;0.50;0.40;;;;;;;21.99;37.38;101828.19;5020532;27;97400;-75
2023/04/26 00:34:02;;;;;;;0.25;0.20;;;;;;;21.99;37.38;101830.94;5029163;27;96798;-75
2023/04/26 00:36:28;;;;;;;0.20;0.20;;;;;;;21.99;37.39;101839.13;5021014;27;96785;-75
2023/04/26 00:38:55;;;;;;;0.32;0.20;;;;;;;21.99;37.32;101834.53;5021064;27;99844;-76
2023/04/26 00:41:23;;;;;;;0.60;0.38;;;;;;;21.99;37.08;101837.25;5019056;27;96761;-76
2023/04/26 00:43:49;;;;;;;0.57;0.40;;;;;;;21.99;37.32;101834.53;5024760;27;96952;-76
2023/04/26 00:46:16;;;;;;;0.40;0.20;;;;;;;22.00;37.14;101835.38;5017965;27;96873;-75
2023/04/26 00:48:43;;;;;;;0.75;0.22;;;;;;;21.99;37.19;101829.06;5027595;27;99640;-75
2023/04/26 00:51:11;;;;;;;0.32;0.30;;;;;;;21.99;37.00;101829.06;5005284;27;96885;-76
2023/04/26 00:53:38;;;;;;;0.75;0.38;;;;;;;22.00;37.07;101836.25;5020564;27;96805;-75
2023/04/26 00:56:15;;;;;;;0.75;0.35;;;;;;;22.01;37.17;101827.03;5021984;27;96790;-75
2023/04/26 00:58:45;;;;;;;0.68;0.30;;;;;;;21.99;37.44;101829.06;5018703;27;96710;-75
2023/04/26 01:01:12;;;;;;;0.73;0.40;;;;;;;22.00;37.30;101827.19;5020517;27;99350;-75
2023/04/26 01:03:40;;;;;;;0.40;0.30;;;;;;;22.00;37.30;101828.03;5028043;27;98045;-75
2023/04/26 01:06:07;;;;;;;0.57;0.30;;;;;;;22.00;37.46;101828.03;5018397;27;96858;-75
2023/04/26 01:08:35;;;;;;;0.60;0.30;;;;;;;22.00;37.50;101830.78;5017659;27;96826;-75
2023/04/26 01:11:03;;;;;;;0.40;0.25;;;;;;;22.01;37.33;101829.75;5019997;27;98259;-76
2023/04/26 01:13:31;;;;;;;0.30;0.22;;;;;;;22.02;37.12;101830.63;5026483;27;97419;-75
2023/04/26 01:15:58;;;;;;;0.55;0.30;;;;;;;22.01;37.36;101824.28;5017843;27;97074;-75
2023/04/26 01:18:25;;;;;;;0.57;0.25;;;;;;;22.00;37.49;101827.19;5013900;27;99361;-75
2023/04/26 01:20:52;;;;;;;0.25;0.13;;;;;;;22.01;37.04;101832.50;5016221;27;96687;-75
2023/04/26 01:23:19;;;;;;;0.43;0.28;;;;;;;22.02;37.43;101830.63;5015518;27;96812;-75
2023/04/26 01:25:46;;;;;;;0.57;0.30;;;;;;;22.01;37.17;101835.22;5020546;27;97361;-76
2023/04/26 01:28:13;;;;;;;0.40;0.20;;;;;;;22.01;37.37;101835.22;5023931;27;96918;-75
2023/04/26 01:30:39;;;;;;;0.20;0.20;;;;;;;22.01;37.19;101837.09;5025573;27;97918;-75
2023/04/26 01:33:06;;;;;;;0.40;0.20;;;;;;;22.01;37.27;101842.56;5018040;27;96687;-76
2023/04/26 01:35:33;;;;;;;0.80;0.30;;;;;;;22.01;37.42;101837.09;5018825;27;97157;-75
2023/04/26 01:38:00;;;;;;;0.50;0.28;;;;;;;22.02;36.83;101838.81;5017228;27;97692;-75
2023/04/26 01:40:27;;;;;;;0.35;0.30;;;;;;;22.02;37.13;101841.56;5017178;27;96727;-76
2023/04/26 01:42:53;;;;;;;1.02;0.25;;;;;;;22.02;37.20;101847.03;5019002;27;96733;-75
2023/04/26 01:45:20;;;;;;;0.43;0.30;;;;;;;22.02;37.28;101839.69;5026909;27;97053;-75
2023/04/26 01:48:05;;;;;;;0.80;0.32;;;;;;;22.01;37.05;101837.09;5017490;27;97140;-75
2023/04/26 01:50:32;;;;;;;0.30;0.30;;;;;;;22.00;37.02;101841.72;5023955;27;98550;-75
2023/04/26 01:52:58;;;;;;;0.30;0.20;;;;;;;22.02;37.11;101836.09;5020470;27;96857;-75
2023/04/26 01:55:25;;;;;;;0.40;0.30;;;;;;;22.01;37.30;101835.22;5021512;27;97476;-75
2023/04/26 01:57:51;;;;;;;0.40;0.30;;;;;;;22.01;37.29;101827.03;5012698;27;97276;-75
2023/04/26 02:00:18;;;;;;;0.55;0.40;;;;;;;22.01;37.29;101837.09;5017117;27;97413;-75
2023/04/26 02:02:47;;;;;;;0.65;0.20;;;;;;;22.02;37.17;101827.88;5018939;27;97057;-75
2023/04/26 02:05:14;;;;;;;0.20;0.20;;;;;;;22.01;37.00;101831.63;5020800;27;96664;-75
2023/04/26 02:07:41;;;;;;;0.30;0.20;;;;;;;22.01;37.23;101835.22;5020563;27;97610;-75
2023/04/26 02:10:08;;;;;;;0.45;0.30;;;;;;;22.00;37.25;101825.31;5015992;27;98436;-75
2023/04/26 02:12:34;;;;;;;0.63;0.32;;;;;;;22.01;37.24;101835.22;5018369;27;96845;-75
2023/04/26 02:15:01;;;;;;;0.45;0.30;;;;;;;22.01;36.91;101827.03;5013684;27;96933;-75
2023/04/26 02:17:28;;;;;;;0.28;0.25;;;;;;;22.01;37.17;101829.75;5018402;27;96696;-74
2023/04/26 02:19:55;;;;;;;0.60;0.40;;;;;;;22.01;37.33;101837.97;5024329;27;97177;-74
2023/04/26 02:22:24;;;;;;;0.30;0.20;;;;;;;22.02;37.32;101836.09;5014376;27;96858;-75
2023/04/26 02:24:51;;;;;;;0.28;0.20;;;;;;;22.02;37.45;101838.81;5018299;27;96700;-74
2023/04/26 02:27:18;;;;;;;0.45;0.30;;;;;;;22.02;37.06;101833.34;5019246;27;97658;-75
2023/04/26 02:29:45;;;;;;;0.52;0.30;;;;;;;22.01;37.01;101843.44;5024218;27;96630;-75
2023/04/26 02:32:13;;;;;;;0.68;0.30;;;;;;;22.02;37.32;101833.34;5026710;27;96744;-75
2023/04/26 02:34:40;;;;;;;0.40;0.30;;;;;;;22.01;37.05;101837.97;5023971;27;97184;-75
2023/04/26 02:37:06;;;;;;;0.55;0.30;;;;;;;22.02;37.32;101839.69;5014819;27;97009;-75
2023/04/26 02:39:33;;;;;;;0.50;0.20;;;;;;;22.00;37.19;101830.78;5016004;27;99725;-75
2023/04/26 02:42:00;;;;;;;0.55;0.28;;;;;;;22.01;37.20;101837.09;5016104;27;96830;-75
2023/04/26 02:44:29;;;;;;;0.30;0.20;;;;;;;22.02;37.33;101825.16;5020343;27;96911;-75
2023/04/26 02:46:56;;;;;;;0.45;0.25;;;;;;;22.00;37.31;101830.78;5024165;27;99303;-75
2023/04/26 02:49:23;;;;;;;0.30;0.22;;;;;;;22.00;37.04;101829.91;5019047;27;97220;-75
2023/04/26 02:51:50;;;;;;;0.40;0.28;;;;;;;22.00;37.29;101828.03;5011249;27;96695;-75
2023/04/26 02:54:17;;;;;;;0.32;0.20;;;;;;;22.00;37.36;101824.44;5014385;27;97044;-75
2023/04/26 02:56:44;;;;;;;0.30;0.20;;;;;;;22.00;37.15;101833.50;5015777;27;98166;-75
2023/04/26 02:59:10;;;;;;;0.43;0.20;;;;;;;22.00;37.19;101824.44;5015162;27;98037;-75
2023/04/26 03:01:37;;;;;;;0.65;0.30;;;;;;;22.00;37.00;101821.72;5014099;27;96803;-75
2023/04/26 03:04:04;;;;;;;0.30;0.20;;;;;;;22.01;36.95;101824.28;4998090;27;96850;-75
2023/04/26 03:06:33;;;;;;;0.40;0.20;;;;;;;22.01;36.96;101826.16;5019476;27;96971;-75
2023/04/26 03:08:59;;;;;;;1.75;0.30;;;;;;;22.00;37.32;101819.81;5020968;27;99186;-75
2023/04/26 03:11:26;;;;;;;0.40;0.30;;;;;;;22.00;37.19;101813.50;5018480;27;96812;-75
2023/04/26 03:13:52;;;;;;;0.22;0.20;;;;;;;21.99;36.82;101812.66;5019737;27;98484;-75
2023/04/26 03:16:20;;;;;;;0.70;0.40;;;;;;;21.99;36.92;101812.66;5021553;27;100710;-75
2023/04/26 03:18:47;;;;;;;0.30;0.20;;;;;;;21.99;37.13;101811.78;5024485;27;97290;-75
2023/04/26 03:21:13;;;;;;;0.30;0.20;;;;;;;22.00;37.33;101816.25;5015563;27;96755;-75
2023/04/26 03:23:40;;;;;;;0.50;0.30;;;;;;;22.00;37.27;101816.25;5015288;27;96883;-75
2023/04/26 03:26:07;;;;;;;0.50;0.28;;;;;;;21.99;37.25;101820.84;5021134;27;99219;-75
2023/04/26 03:28:34;;;;;;;0.28;0.20;;;;;;;21.99;37.08;101818.13;5023815;27;98931;-75
2023/04/26 03:31:01;;;;;;;0.65;0.30;;;;;;;21.99;37.07;101815.38;5025173;27;96704;-75
2023/04/26 03:33:30;;;;;;;0.20;0.20;;;;;;;21.99;37.21;101811.78;5017717;27;96939;-76
2023/04/26 03:35:56;;;;;;;0.50;0.20;;;;;;;21.99;37.00;101815.38;5022280;27;98884;-75
2023/04/26 03:38:23;;;;;;;0.30;0.20;;;;;;;21.98;37.25;101808.19;5016098;27;96666;-75
2023/04/26 03:40:50;;;;;;;0.10;0.10;;;;;;;21.98;37.06;101808.19;5021612;27;97255;-75
2023/04/26 03:43:17;;;;;;;0.60;0.40;;;;;;;21.97;37.02;101809.22;5020382;27;96950;-75
2023/04/26 03:45:47;;;;;;;0.60;0.20;;;;;;;21.98;37.08;101805.47;5010974;27;96906;-75
2023/04/26 03:48:15;;;;;;;0.43;0.30;;;;;;;21.98;36.94;101802.72;5023501;27;97234;-75
2023/04/26 03:50:43;;;;;;;0.40;0.25;;;;;;;21.97;37.33;101803.75;5016337;27;97831;-75
2023/04/26 03:53:10;;;;;;;0.73;0.30;;;;;;;21.97;37.16;101811.94;5019873;27;96870;-75
2023/04/26 03:55:37;;;;;;;0.88;0.30;;;;;;;21.97;37.14;101803.75;5016632;27;99524;-75
2023/04/26 03:58:06;;;;;;;0.22;0.20;;;;;;;21.97;37.19;101805.63;5019441;27;98677;-75
2023/04/26 04:00:36;;;;;;;0.32;0.20;;;;;;;21.98;37.39;101804.59;5025292;27;96914;-75
2023/04/26 04:03:02;;;;;;;0.57;0.30;;;;;;;21.97;37.09;101803.75;5025673;27;97184;-75
2023/04/26 04:05:30;;;;;;;0.25;0.20;;;;;;;21.97;37.12;101808.34;5024080;27;99206;-75
2023/04/26 04:07:58;;;;;;;0.43;0.30;;;;;;;21.97;37.02;101808.34;5022016;27;98925;-75
2023/04/26 04:10:24;;;;;;;0.20;0.20;;;;;;;21.96;36.92;101810.22;5018900;27;96865;-76
2023/04/26 04:12:52;;;;;;;0.22;0.20;;;;;;;21.97;37.03;101809.22;5025096;27;96836;-75
2023/04/26 04:15:19;;;;;;;0.20;0.13;;;;;;;21.96;37.03;101812.97;5009718;27;99224;-76
2023/04/26 04:17:47;;;;;;;0.30;0.20;;;;;;;21.96;37.22;101812.97;5016186;27;97573;-76
2023/04/26 04:20:14;;;;;;;0.70;0.30;;;;;;;21.96;37.27;101812.97;5020010;27;97176;-75
2023/04/26 04:22:41;;;;;;;0.65;0.28;;;;;;;21.96;37.46;101806.63;5022854;27;97010;-75
2023/04/26 04:25:12;;;;;;;0.30;0.25;;;;;;;21.96;36.88;101801.16;5009523;27;99588;-75
2023/04/26 04:27:41;;;;;;;0.45;0.40;;;;;;;21.95;37.27;101808.50;5022111;27;100592;-75
2023/04/26 04:30:09;;;;;;;1.20;0.30;;;;;;;21.95;37.02;101811.25;5023335;27;96724;-76
2023/04/26 04:32:36;;;;;;;0.35;0.20;;;;;;;21.95;37.16;101816.72;5016750;27;97412;-75
2023/04/26 04:35:04;;;;;;;0.40;0.20;;;;;;;21.94;37.04;101812.25;5020826;27;97842;-75
2023/04/26 04:37:32;;;;;;;0.30;0.20;;;;;;;21.94;37.27;101812.25;5019433;27;96762;-75
2023/04/26 04:39:59;;;;;;;0.75;0.30;;;;;;;21.94;37.08;101812.25;5015075;27;97015;-75
2023/04/26 04:42:27;;;;;;;0.20;0.20;;;;;;;21.95;37.11;101824.91;5013960;27;96943;-75
2023/04/26 04:44:56;;;;;;;0.68;0.40;;;;;;;21.96;37.01;101823.03;5014095;27;99637;-75
2023/04/26 04:47:24;;;;;;;0.40;0.30;;;;;;;21.95;37.30;101826.81;5016690;27;99431;-75
2023/04/26 04:49:52;;;;;;;0.30;0.28;;;;;;;21.95;36.98;101827.66;5011733;27;96863;-75
2023/04/26 04:52:22;;;;;;;0.20;0.20;;;;;;;21.95;37.13;101824.06;5018980;27;96900;-75
2023/04/26 04:54:48;;;;;;;0.70;0.30;;;;;;;21.95;37.11;101826.81;5013404;27;99301;-75
2023/04/26 04:57:15;;;;;;;0.28;0.20;;;;;;;21.94;37.05;101831.41;5015951;27;99949;-75
2023/04/26 04:59:44;;;;;;;0.40;0.35;;;;;;;21.95;36.95;101830.38;5026748;27;96848;-75
2023/04/26 05:02:10;;;;;;;0.65;0.32;;;;;;;21.94;37.08;101825.94;5010938;27;96972;-75
2023/04/26 05:04:37;;;;;;;0.30;0.20;;;;;;;21.93;37.09;101829.69;5021366;27;100258;-75
2023/04/26 05:07:05;;;;;;;0.32;0.30;;;;;;;21.94;36.95;101828.69;5023683;27;100542;-75
2023/04/26 05:09:33;;;;;;;0.47;0.22;;;;;;;21.95;36.93;101835.00;5015587;27;96727;-75
2023/04/26 05:12:00;;;;;;;0.35;0.22;;;;;;;21.94;37.25;101839.63;5024269;27;96815;-75
2023/04/26 05:14:28;;;;;;;0.30;0.20;;;;;;;21.94;37.23;101836.88;5023707;27;98849;-75
2023/04/26 05:16:55;;;;;;;0.38;0.22;;;;;;;21.94;37.28;101833.28;5020025;27;96847;-75
2023/04/26 05:19:22;;;;;;;0.35;0.20;;;;;;;21.95;37.02;101841.34;5018156;27;96753;-75
2023/04/26 05:21:48;;;;;;;0.80;0.30;;;;;;;21.95;37.27;101841.34;5019358;27;96864;-75
2023/04/26 05:24:15;;;;;;;0.40;0.30;;;;;;;21.95;37.14;101852.28;5021550;27;97471;-75
2023/04/26 05:26:42;;;;;;;0.30;0.30;;;;;;;21.95;37.04;101843.22;5013812;27;97758;-75
2023/04/26 05:29:09;;;;;;;0.38;0.30;;;;;;;21.95;36.95;101843.22;5013442;27;96590;-75
2023/04/26 05:31:56;;;;;;;0.25;0.20;;;;;;;21.94;37.10;101844.22;5014359;27;97065;-76
2023/04/26 05:34:49;;;;;;;0.35;0.20;;;;;;;21.93;37.21;101848.84;5008257;27;97457;-75
2023/04/26 05:37:16;;;;;;;0.20;0.20;;;;;;;21.94;36.89;101846.97;5005373;28;100628;-76
2023/04/26 05:39:43;;;;;;;0.65;0.32;;;;;;;21.95;37.04;101854.16;5009147;28;96911;-76
2023/04/26 05:42:09;;;;;;;0.50;0.20;;;;;;;21.94;37.01;101853.28;4999570;28;96796;-75
2023/04/26 05:44:37;;;;;;;0.32;0.20;;;;;;;21.94;36.97;101858.75;5018657;28;98367;-75
2023/04/26 05:47:04;;;;;;;0.40;0.20;;;;;;;21.95;37.17;101855.00;5029901;27;97303;-75
2023/04/26 05:49:30;;;;;;;0.30;0.30;;;;;;;21.94;36.97;101858.75;5016024;28;96933;-75
2023/04/26 05:51:59;;;;;;;0.30;0.20;;;;;;;21.95;36.94;101863.22;5027430;28;96910;-75
2023/04/26 05:54:26;;;;;;;0.90;0.30;;;;;;;21.95;36.78;101865.94;5031321;28;99654;-75
2023/04/26 05:56:53;;;;;;;0.52;0.30;;;;;;;21.95;36.93;101865.09;5030844;27;99881;-75
2023/04/26 05:59:23;;;;;;;0.50;0.30;;;;;;;21.95;37.39;101863.22;5028921;27;96929;-75
2023/04/26 06:01:50;;;;;;;0.75;0.45;;;;;;;21.95;37.28;101857.75;5030965;28;96834;-75
2023/04/26 06:04:17;;;;;;;0.47;0.30;;;;;;;21.95;36.95;101868.69;5027874;27;99218;-75
2023/04/26 06:06:59;;;;;;;0.52;0.30;;;;;;;21.95;36.94;101865.94;5029711;27;98762;-75
2023/04/26 06:09:26;;;;;;;0.57;0.30;;;;;;;21.95;36.86;101865.94;5029238;28;96812;-76
2023/04/26 06:11:53;;;;;;;0.30;0.30;;;;;;;21.95;37.07;101865.94;5023574;27;96646;-75
2023/04/26 06:14:19;;;;;;;0.30;0.30;;;;;;;21.95;36.97;101868.69;5028821;28;100286;-75
2023/04/26 06:16:57;;;;;;;0.55;0.20;;;;;;;21.94;37.04;101866.09;5015338;28;97401;-76
2023/04/26 06:19:25;;;;;;;0.47;0.30;;;;;;;21.94;37.18;101871.56;5023608;28;97320;-75
2023/04/26 06:21:54;;;;;;;0.40;0.30;;;;;;;21.95;37.15;101865.09;5025185;28;97372;-75
2023/04/26 06:24:22;;;;;;;0.25;0.20;;;;;;;21.95;36.90;101871.41;5008527;28;99928;-75
2023/04/26 06:26:48;;;;;;;0.22;0.20;;;;;;;21.94;36.99;101868.84;5031336;27;96758;-76
2023/04/26 06:29:15;;;;;;;0.15;0.15;;;;;;;21.94;36.71;101866.97;5011150;28;96721;-75
2023/04/26 06:31:42;;;;;;;0.45;0.30;;;;;;;21.94;37.13;101868.84;5010495;28;96778;-76
2023/04/26 06:34:09;;;;;;;0.30;0.20;;;;;;;21.94;36.90;101864.22;5010299;28;97635;-75
2023/04/26 06:36:35;;;;;;;0.30;0.20;;;;;;;21.94;37.27;101866.09;5020242;28;96821;-76
2023/04/26 06:39:02;;;;;;;0.40;0.30;;;;;;;21.94;36.88;101869.69;5027353;28;96651;-76
2023/04/26 06:41:30;;;;;;;0.28;0.25;;;;;;;21.94;37.01;101869.69;5028613;28;97108;-75
2023/04/26 06:43:56;;;;;;;0.10;0.10;;;;;;;21.94;37.11;101871.56;5030110;28;99308;-75
2023/04/26 06:46:29;;;;;;;0.30;0.20;;;;;;;21.94;36.83;101883.38;5019739;27;97771;-75
2023/04/26 06:48:56;;;;;;;0.50;0.30;;;;;;;21.93;37.15;101873.47;5030663;28;97366;-75
2023/04/26 06:51:23;;;;;;;0.20;0.15;;;;;;;21.93;36.91;101881.66;5030071;28;97162;-75
2023/04/26 06:53:51;;;;;;;0.52;0.30;;;;;;;21.93;36.98;101881.66;5031429;28;97616;-76
2023/04/26 06:56:18;;;;;;;0.10;0.10;;;;;;;21.93;36.79;101880.81;5030344;28;99416;-75
2023/04/26 06:59:06;;;;;;;0.30;0.20;;;;;;;21.94;37.16;101880.66;5025959;28;96809;-75
2023/04/26 07:01:34;;;;;;;0.22;0.20;;;;;;;21.91;36.94;101883.69;5026690;28;96750;-75
2023/04/26 07:04:02;;;;;;;1.27;0.20;;;;;;;21.91;36.73;101889.16;5029873;28;98337;-75
2023/04/26 07:06:30;;;;;;;0.30;0.20;;;;;;;21.92;37.05;101884.56;5031318;27;97093;-75
2023/04/26 07:09:01;;;;;;;0.43;0.20;;;;;;;21.91;36.98;101894.63;5031737;27;96697;-76
2023/04/26 07:11:28;;;;;;;0.40;0.20;;;;;;;21.92;37.09;101892.75;5030363;27;97108;-75
2023/04/26 07:13:55;;;;;;;0.50;0.30;;;;;;;21.91;37.01;101891.03;5030497;27;96720;-75
2023/04/26 07:16:22;;;;;;;0.30;0.30;;;;;;;21.91;37.10;101885.56;5027518;28;97682;-75
2023/04/26 07:18:51;;;;;;;0.30;0.30;;;;;;;21.90;36.85;101884.72;5020533;28;96998;-75
2023/04/26 07:21:18;;;;;;;0.57;0.30;;;;;;;21.91;36.87;101880.09;5031557;28;96688;-75
2023/04/26 07:23:44;;;;;;;0.32;0.30;;;;;;;21.91;37.03;101883.69;5021965;27;96754;-75
2023/04/26 07:26:11;;;;;;;0.30;0.20;;;;;;;21.91;37.19;101882.84;5024124;28;96831;-75
2023/04/26 07:28:37;;;;;;;0.35;0.28;;;;;;;21.91;37.01;101882.84;5019006;28;97125;-75
2023/04/26 07:31:04;;;;;;;0.25;0.20;;;;;;;21.89;37.15;101874.78;5017642;27;96828;-75
2023/04/26 07:33:34;;;;;;;0.50;0.30;;;;;;;21.90;36.85;101887.44;5019856;28;98629;-75
2023/04/26 07:36:01;;;;;;;0.50;0.30;;;;;;;21.89;36.69;101883.84;5027367;28;96717;-75
2023/04/26 07:38:27;;;;;;;0.32;0.30;;;;;;;21.89;36.91;101885.72;5031559;28;96702;-76
2023/04/26 07:40:54;;;;;;;0.40;0.30;;;;;;;21.90;36.99;101887.44;5026220;28;96843;-76
2023/04/26 07:43:22;;;;;;;0.20;0.20;;;;;;;21.91;36.98;101883.69;5021217;28;96602;-75
2023/04/26 07:45:48;;;;;;;0.40;0.30;;;;;;;21.88;36.94;101871.19;5029079;28;98700;-75
2023/04/26 07:48:15;;;;;;;0.30;0.20;;;;;;;21.90;36.67;101884.72;5031423;28;96920;-75
2023/04/26 07:50:42;;;;;;;0.57;0.30;;;;;;;21.88;36.66;101887.59;5025916;28;96869;-75
2023/04/26 07:53:09;;;;;;;0.40;0.30;;;;;;;21.88;36.93;101882.13;5030105;28;97633;-75
2023/04/26 07:55:36;;;;;;;0.35;0.30;;;;;;;21.88;36.80;101887.59;5025755;28;96612;-75
2023/04/26 07:58:03;;;;;;;0.30;0.30;;;;;;;21.88;36.77;101879.41;5022557;28;96665;-75
2023/04/26 08:00:29;;;;;;;0.40;0.28;;;;;;;21.88;36.83;101876.66;5012513;28;96810;-76
2023/04/26 08:02:56;;;;;;;0.25;0.20;;;;;;;21.89;36.78;101880.25;5017034;27;98812;-75
2023/04/26 08:05:23;;;;;;;0.35;0.22;;;;;;;21.88;36.79;101881.28;5009330;28;97373;-75
2023/04/26 08:07:50;;;;;;;0.35;0.30;;;;;;;21.88;37.11;101892.22;5010913;28;96995;-75
2023/04/26 08:10:17;;;;;;;0.28;0.20;;;;;;;21.87;36.77;101888.63;5030565;28;97328;-75
2023/04/26 08:12:43;;;;;;;0.20;0.20;;;;;;;21.88;36.98;101886.75;5028736;28;100327;-75
2023/04/26 08:15:10;;;;;;;0.40;0.40;;;;;;;21.88;36.88;101892.22;5028895;28;97362;-75
2023/04/26 08:17:37;;;;;;;0.30;0.22;;;;;;;21.87;36.95;101890.50;5018041;27;96693;-75
2023/04/26 08:20:04;;;;;;;0.43;0.38;;;;;;;21.87;36.75;101894.09;5024105;28;96702;-75
2023/04/26 08:22:31;;;;;;;0.60;0.30;;;;;;;21.87;36.94;101893.22;5023442;28;96619;-75
2023/04/26 08:24:57;;;;;;;0.30;0.20;;;;;;;21.87;36.82;101899.56;5029380;28;96684;-75
2023/04/26 08:27:24;;;;;;;0.20;0.20;;;;;;;21.87;36.62;101906.91;5030432;28;96667;-76
2023/04/26 08:29:51;;;;;;;0.60;0.30;;;;;;;21.88;36.75;101914.09;5030814;27;96830;-74
2023/04/26 08:32:17;;;;;;;0.47;0.17;;;;;;;21.87;36.94;101905.03;5016177;27;97026;-75
2023/04/26 08:34:44;;;;;;;0.10;0.10;;;;;;;21.87;36.68;101904.16;5016353;28;97301;-76
2023/04/26 08:37:12;;;;;;;0.20;0.20;;;;;;;21.87;36.87;101907.75;5030418;28;97224;-75
2023/04/26 08:39:40;;;;;;;0.65;0.30;;;;;;;21.88;36.80;101911.34;5028960;28;96887;-75
2023/04/26 08:42:15;;;;;;;0.40;0.30;;;;;;;21.88;37.00;101905.88;5017840;28;97924;-76
2023/04/26 08:44:43;;;;;;;0.30;0.20;;;;;;;21.87;36.81;101895.97;5025517;28;97132;-75
2023/04/26 08:47:17;;;;;;;0.43;0.25;;;;;;;21.88;36.91;101897.69;5035470;27;98156;-75
2023/04/26 08:49:58;;;;;;;0.32;0.20;;;;;;;21.89;36.70;101896.66;5035669;28;96747;-75
2023/04/26 08:52:30;;;;;;;0.30;0.20;;;;;;;21.88;36.77;101897.69;5032428;27;96838;-75
2023/04/26 08:54:59;;;;;;;0.38;0.25;;;;;;;21.86;36.65;101897.84;5033773;27;96620;-76
2023/04/26 08:57:26;;;;;;;0.40;0.25;;;;;;;21.87;36.92;101891.34;5032606;28;96686;-75
2023/04/26 08:59:55;;;;;;;0.20;0.20;;;;;;;21.87;36.42;101893.22;5034018;28;96824;-75
2023/04/26 09:02:22;;;;;;;0.43;0.30;;;;;;;21.87;36.68;101891.34;5021137;28;97694;-75
2023/04/26 09:04:50;;;;;;;0.45;0.20;;;;;;;21.86;36.80;101888.78;5018219;28;98957;-75
2023/04/26 09:07:25;;;;;;;0.50;0.30;;;;;;;21.87;36.70;101888.63;5033452;28;97337;-75
2023/04/26 09:09:53;;;;;;;0.50;0.22;;;;;;;21.86;36.62;101888.78;5017063;27;96660;-74
2023/04/26 09:12:20;;;;;;;0.30;0.20;;;;;;;21.85;36.60;101887.06;5021410;28;97709;-76
2023/04/26 09:14:47;;;;;;;0.73;0.40;;;;;;;21.86;36.99;101891.50;5029710;28;98161;-75
2023/04/26 09:17:36;;;;;;;0.10;0.10;;;;;;;21.86;36.69;101883.31;5022941;28;96659;-75
2023/04/26 09:20:26;;;;;;;0.73;0.30;;;;;;;21.86;36.62;101883.31;5032472;28;96854;-76
2023/04/26 09:23:15;;;;;;;0.40;0.30;;;;;;;21.84;36.91;101885.34;5033001;28;97668;-75
2023/04/26 09:25:42;;;;;;;0.20;0.20;;;;;;;21.82;36.88;101881.91;5034156;27;97135;-75
2023/04/26 09:28:21;;;;;;;0.10;0.10;;;;;;;21.84;37.02;101882.59;5015351;28;96738;-75
2023/04/26 09:30:48;;;;;;;0.50;0.30;;;;;;;21.83;36.97;101884.47;5032571;27;97198;-76
2023/04/26 09:33:14;;;;;;;0.40;0.20;;;;;;;21.83;36.93;101878.16;5031265;28;97103;-75
2023/04/26 09:35:42;;;;;;;0.35;0.30;;;;;;;21.84;36.56;101879.88;5030469;27;97648;-75
2023/04/26 09:38:12;;;;;;;0.70;0.30;;;;;;;21.84;36.68;101879.88;5033158;28;96660;-75
2023/04/26 09:40:45;;;;;;;0.35;0.30;;;;;;;21.84;36.64;101877.13;5031595;27;97104;-75
2023/04/26 09:43:14;;;;;;;0.38;0.30;;;;;;;21.85;36.84;101870.66;5021985;28;97496;-75
2023/04/26 09:45:48;;;;;;;0.40;0.40;;;;;;;21.85;36.82;101870.66;5030687;28;96924;-75
2023/04/26 09:48:21;;;;;;;0.43;0.28;;;;;;;21.85;36.77;101876.13;5021630;27;96684;-75
2023/04/26 09:50:53;;;;;;;0.20;0.20;;;;;;;21.84;36.84;101875.25;5029639;28;96852;-76
2023/04/26 09:53:35;;;;;;;0.20;0.20;;;;;;;21.85;36.53;101876.13;5032934;27;97790;-75
2023/04/26 09:56:13;;;;;;;0.20;0.20;;;;;;;21.84;36.88;101875.25;5020254;28;96796;-75
2023/04/26 09:58:46;;;;;;;0.30;0.30;;;;;;;21.85;36.70;101884.31;5031023;28;96884;-75
2023/04/26 10:01:17;;;;;;;0.20;0.20;;;;;;;21.84;36.74;101883.47;5032478;27;96862;-75
2023/04/26 10:03:45;;;;;;;0.30;0.30;;;;;;;21.84;36.93;101878.00;5017693;28;96795;-75
2023/04/26 10:06:13;;;;;;;0.30;0.20;;;;;;;21.85;36.90;101878.84;5032224;27;96879;-76
2023/04/26 10:08:39;;;;;;;0.47;0.20;;;;;;;21.84;36.56;101875.25;5031507;28;97654;-75
2023/04/26 10:11:06;;;;;;;1.40;0.20;;;;;;;21.85;36.94;101884.31;5032398;28;96462;-75
2023/04/26 10:13:33;;;;;;;0.40;0.28;;;;;;;21.85;36.70;101879.72;5031871;28;97743;-75
2023/04/26 10:16:01;;;;;;;0.20;0.17;;;;;;;21.85;36.96;101873.38;5029728;28;99575;-75
2023/04/26 10:18:29;;;;;;;0.28;0.20;;;;;;;21.84;36.63;101877.13;5018541;28;96720;-76
2023/04/26 10:21:04;;;;;;;0.20;0.20;;;;;;;21.85;36.88;101876.97;5031183;28;97014;-75
2023/04/26 10:23:32;;;;;;;;;;;;;;;21.80;36.95;101876.59;5032786;27;97824;-75
2023/04/26 10:25:58;;;;;;;0.20;0.20;;;;;;;21.80;36.97;101878.47;5031324;28;97559;-75
2023/04/26 10:28:43;;;;;;;0.40;0.30;;;;;;;21.81;36.66;101875.56;5032672;28;96746;-76
2023/04/26 10:31:10;;;;;;;0.40;0.20;;;;;;;21.80;36.65;101878.47;5032074;28;96770;-75
2023/04/26 10:33:37;;;;;;;0.30;0.20;;;;;;;21.80;36.67;101882.06;5021469;27;98383;-77
2023/04/26 10:36:07;;;;;;;0.38;0.20;;;;;;;21.80;36.67;101879.31;5020092;28;97410;-75
2023/04/26 10:38:36;;;;;;;0.30;0.20;;;;;;;21.81;36.91;101878.31;5023862;28;96631;-75
2023/04/26 10:41:29;;;;;;;0.40;0.30;;;;;;;21.82;36.86;101879.16;5032278;27;96692;-75
2023/04/26 10:43:58;;;;;;;0.40;0.22;;;;;;;21.80;36.92;101873.00;5017930;28;97402;-75
2023/04/26 10:46:41;;;;;;;0.30;0.20;;;;;;;21.81;36.72;101870.09;5031638;28;97456;-75
2023/04/26 10:49:13;;;;;;;0.57;0.30;;;;;;;21.80;36.49;101871.13;5031179;27;96722;-75
2023/04/26 10:51:40;;;;;;;0.30;0.20;;;;;;;21.80;36.51;101868.38;5021108;28;96797;-76
2023/04/26 10:54:08;;;;;;;0.40;0.30;;;;;;;21.81;36.69;101867.38;5021660;28;96809;-75
2023/04/26 10:56:37;;;;;;;0.10;0.10;;;;;;;21.82;37.01;101860.88;5013109;27;98341;-75
2023/04/26 10:59:11;;;;;;;0.20;0.20;;;;;;;21.83;36.62;101867.22;5015802;28;96793;-75
2023/04/26 11:01:40;;;;;;;0.45;0.30;;;;;;;21.83;36.64;101859.00;5023299;28;96764;-76
2023/04/26 11:04:09;;;;;;;0.22;0.22;;;;;;;21.84;36.56;101860.72;5017879;28;97101;-75
2023/04/26 11:06:53;;;;;;;0.52;0.30;;;;;;;21.86;36.86;101855.97;5028870;27;97298;-75
2023/04/26 11:09:33;;;;;;;0.10;0.10;;;;;;;21.85;36.58;101859.72;5020403;28;96779;-75
2023/04/26 11:12:00;;;;;;;0.17;0.17;;;;;;;21.84;36.88;101856.13;5023972;28;97028;-76
2023/04/26 11:14:27;;;;;;;0.68;0.40;;;;;;;21.86;36.55;101859.56;5031130;27;98421;-75
2023/04/26 11:16:53;;;;;;;0.30;0.20;;;;;;;21.87;36.86;101838.53;5024792;28;97407;-75
2023/04/26 11:19:20;;;;;;;0.60;0.38;;;;;;;21.87;36.55;101853.06;5017318;28;97283;-75
2023/04/26 11:21:46;;;;;;;0.50;0.30;;;;;;;21.88;37.00;101848.47;5031345;28;96608;-75
2023/04/26 11:24:16;;;;;;;0.20;0.20;;;;;;;21.89;37.03;101851.03;5029658;28;97819;-76
2023/04/26 11:26:50;;;;;;;0.25;0.20;;;;;;;21.91;36.54;101850.00;5023550;28;97503;-76
2023/04/26 11:29:20;;;;;;;0.40;0.25;;;;;;;21.90;36.87;101846.41;5027202;28;96706;-75
2023/04/26 11:31:53;;;;;;;0.30;0.20;;;;;;;21.92;36.50;101851.72;5028399;27;96648;-75